createdAt,value
2022-10-05T00:00:41.318Z,1016.25
2022-10-05T00:01:41.777Z,1016.23
2022-10-05T00:02:42.023Z,1016.28
2022-10-05T00:03:42.382Z,1016.25
2022-10-05T00:04:42.778Z,1016.26
2022-10-05T00:05:43.134Z,1016.27
2022-10-05T00:06:43.714Z,1016.34
2022-10-05T00:07:43.849Z,1016.35
2022-10-05T00:08:44.187Z,1016.29
2022-10-05T00:09:44.557Z,1016.33
2022-10-05T00:10:44.936Z,1016.34
2022-10-05T00:11:45.285Z,1016.34
2022-10-05T00:12:45.635Z,1016.35
2022-10-05T00:13:45.983Z,1016.31
2022-10-05T00:14:46.345Z,1016.31
2022-10-05T00:15:46.705Z,1016.30
2022-10-05T00:16:47.460Z,1016.30
2022-10-05T00:17:47.462Z,1016.33
2022-10-05T00:18:47.797Z,1016.32
2022-10-05T00:19:48.150Z,1016.28
2022-10-05T00:20:48.548Z,1016.27
2022-10-05T00:21:48.883Z,1016.21
2022-10-05T00:22:49.231Z,1016.26
2022-10-05T00:23:49.606Z,1016.29
2022-10-05T00:24:49.952Z,1016.25
2022-10-05T00:25:50.404Z,1016.25
2022-10-05T00:26:54.178Z,1016.29
2022-10-05T00:27:51.059Z,1016.25
2022-10-05T00:28:51.424Z,1016.25
2022-10-05T00:29:51.783Z,1016.25
2022-10-05T00:30:52.156Z,1016.22
2022-10-05T00:31:52.513Z,1016.23
2022-10-05T00:32:57.306Z,1016.23
2022-10-05T00:33:53.244Z,1016.20
2022-10-05T00:34:53.586Z,1016.13
2022-10-05T00:35:53.984Z,1016.14
2022-10-05T00:36:54.293Z,1016.19
2022-10-05T00:37:54.673Z,1016.14
2022-10-05T00:38:55.031Z,1016.18
2022-10-05T00:39:55.375Z,1016.15
2022-10-05T00:40:55.739Z,1016.19
2022-10-05T00:41:56.106Z,1016.14
2022-10-05T00:42:56.448Z,1016.15
2022-10-05T00:43:56.797Z,1016.15
2022-10-05T00:44:57.150Z,1016.17
2022-10-05T00:45:57.633Z,1016.14
2022-10-05T00:46:57.881Z,1016.15
2022-10-05T00:47:58.238Z,1016.08
2022-10-05T00:48:58.595Z,1016.12
2022-10-05T00:49:58.939Z,1016.08
2022-10-05T00:50:59.304Z,1016.07
2022-10-05T00:51:59.676Z,1016.11
2022-10-05T00:53:00.025Z,1016.08
2022-10-05T00:54:00.366Z,1016.08
2022-10-05T00:55:00.747Z,1016.07
2022-10-05T00:56:01.141Z,1016.00
2022-10-05T00:57:01.451Z,1016.01
2022-10-05T00:58:01.803Z,1015.96
2022-10-05T00:59:02.153Z,1015.90
2022-10-05T01:00:02.511Z,1015.88
2022-10-05T01:01:02.941Z,1015.88
2022-10-05T01:02:03.305Z,1015.85
2022-10-05T01:03:03.609Z,1015.78
2022-10-05T01:04:03.954Z,1015.73
2022-10-05T01:05:04.314Z,1015.72
2022-10-05T01:06:04.699Z,1015.70
2022-10-05T01:07:05.003Z,1015.73
2022-10-05T01:08:05.481Z,1015.75
2022-10-05T01:09:05.717Z,1015.68
2022-10-05T01:10:06.055Z,1015.75
2022-10-05T01:11:06.425Z,1015.73
2022-10-05T01:12:06.765Z,1015.69
2022-10-05T01:13:07.142Z,1015.65
2022-10-05T01:14:07.495Z,1015.67
2022-10-05T01:15:07.835Z,1015.68
2022-10-05T01:16:08.339Z,1015.69
2022-10-05T01:17:08.571Z,1015.69
2022-10-05T01:18:08.919Z,1015.64
2022-10-05T01:19:09.263Z,1015.69
2022-10-05T01:20:09.629Z,1015.62
2022-10-05T01:21:10.036Z,1015.67
2022-10-05T01:22:10.345Z,1015.71
2022-10-05T01:23:10.694Z,1015.72
2022-10-05T01:24:11.045Z,1015.70
2022-10-05T01:25:11.421Z,1015.75
2022-10-05T01:26:11.782Z,1015.71
2022-10-05T01:27:12.123Z,1015.74
2022-10-05T01:28:12.501Z,1015.66
2022-10-05T01:29:12.841Z,1015.67
2022-10-05T01:30:13.187Z,1015.65
2022-10-05T01:31:13.585Z,1015.66
2022-10-05T01:32:13.888Z,1015.67
2022-10-05T01:33:14.284Z,1015.64
2022-10-05T01:34:14.627Z,1015.60
2022-10-05T01:35:14.980Z,1015.58
2022-10-05T01:36:15.350Z,1015.56
2022-10-05T01:37:15.687Z,1015.50
2022-10-05T01:38:16.055Z,1015.51
2022-10-05T01:39:16.407Z,1015.45
2022-10-05T01:40:16.761Z,1015.47
2022-10-05T01:41:17.130Z,1015.49
2022-10-05T01:42:17.491Z,1015.48
2022-10-05T01:43:17.829Z,1015.44
2022-10-05T01:44:18.222Z,1015.42
2022-10-05T01:45:18.563Z,1015.46
2022-10-05T01:46:18.963Z,1015.47
2022-10-05T01:47:19.345Z,1015.51
2022-10-05T01:48:19.678Z,1015.54
2022-10-05T01:49:20.019Z,1015.50
2022-10-05T01:50:20.367Z,1015.56
2022-10-05T01:51:20.733Z,1015.55
2022-10-05T01:52:21.071Z,1015.52
2022-10-05T01:53:21.462Z,1015.56
2022-10-05T01:54:21.813Z,1015.59
2022-10-05T01:55:22.163Z,1015.56
2022-10-05T01:56:22.522Z,1015.60
2022-10-05T01:57:22.885Z,1015.54
2022-10-05T01:58:23.226Z,1015.56
2022-10-05T01:59:23.608Z,1015.57
2022-10-05T02:00:23.964Z,1015.55
2022-10-05T02:01:24.434Z,1015.53
2022-10-05T02:02:24.806Z,1015.49
2022-10-05T02:03:25.096Z,1015.52
2022-10-05T02:04:59.873Z,1015.47
2022-10-05T02:05:25.778Z,1015.53
2022-10-05T02:06:26.182Z,1015.55
2022-10-05T02:07:26.496Z,1015.48
2022-10-05T02:08:26.843Z,1015.45
2022-10-05T02:09:27.198Z,1015.41
2022-10-05T02:10:27.547Z,1015.38
2022-10-05T02:11:27.959Z,1015.35
2022-10-05T02:12:28.362Z,1015.33
2022-10-05T02:13:28.631Z,1015.32
2022-10-05T02:14:28.977Z,1015.27
2022-10-05T02:15:29.424Z,1015.33
2022-10-05T02:16:29.731Z,1015.34
2022-10-05T02:17:30.069Z,1015.31
2022-10-05T02:18:30.458Z,1015.30
2022-10-05T02:19:30.774Z,1015.29
2022-10-05T02:20:31.128Z,1015.33
2022-10-05T02:21:31.528Z,1015.29
2022-10-05T02:22:31.851Z,1015.30
2022-10-05T02:23:32.276Z,1015.28
2022-10-05T02:24:32.578Z,1015.31
2022-10-05T02:25:32.969Z,1015.34
2022-10-05T02:26:33.311Z,1015.33
2022-10-05T02:27:33.662Z,1015.33
2022-10-05T02:28:34.044Z,1015.35
2022-10-05T02:29:34.383Z,1015.33
2022-10-05T02:30:34.771Z,1015.28
2022-10-05T02:31:35.317Z,1015.33
2022-10-05T02:32:35.498Z,1015.33
2022-10-05T02:33:35.887Z,1015.35
2022-10-05T02:34:36.255Z,1015.33
2022-10-05T02:35:36.564Z,1015.25
2022-10-05T02:36:36.934Z,1015.33
2022-10-05T02:37:37.267Z,1015.30
2022-10-05T02:38:37.678Z,1015.23
2022-10-05T02:39:38.018Z,1015.30
2022-10-05T02:40:38.372Z,1015.23
2022-10-05T02:41:38.762Z,1015.26
2022-10-05T02:42:39.171Z,1015.25
2022-10-05T02:43:39.493Z,1015.26
2022-10-05T02:44:39.863Z,1015.30
2022-10-05T02:45:40.229Z,1015.24
2022-10-05T02:46:40.592Z,1015.24
2022-10-05T02:47:40.968Z,1015.20
2022-10-05T02:48:41.287Z,1015.09
2022-10-05T02:49:41.638Z,1015.15
2022-10-05T02:50:42.019Z,1015.11
2022-10-05T02:51:42.378Z,1015.05
2022-10-05T02:52:42.722Z,1014.98
2022-10-05T02:53:43.082Z,1014.97
2022-10-05T02:54:43.434Z,1014.91
2022-10-05T02:55:43.979Z,1014.92
2022-10-05T02:56:44.570Z,1014.90
2022-10-05T02:57:44.485Z,1014.97
2022-10-05T02:58:44.853Z,1014.97
2022-10-05T02:59:45.201Z,1014.95
2022-10-05T03:00:45.573Z,1014.92
2022-10-05T03:01:46.089Z,1014.89
2022-10-05T03:02:46.260Z,1014.83
2022-10-05T03:03:46.677Z,1014.85
2022-10-05T03:04:46.968Z,1014.91
2022-10-05T03:05:47.334Z,1014.90
2022-10-05T03:06:48.149Z,1014.94
2022-10-05T03:07:48.037Z,1014.88
2022-10-05T03:08:48.396Z,1014.91
2022-10-05T03:09:48.746Z,1014.88
2022-10-05T03:10:49.095Z,1014.92
2022-10-05T03:11:49.473Z,1014.89
2022-10-05T03:12:49.813Z,1014.95
2022-10-05T03:13:50.169Z,1014.94
2022-10-05T03:14:50.526Z,1014.98
2022-10-05T03:15:50.901Z,1015.03
2022-10-05T03:16:51.236Z,1015.01
2022-10-05T03:17:51.578Z,1014.96
2022-10-05T03:18:51.930Z,1014.92
2022-10-05T03:19:52.306Z,1014.92
2022-10-05T03:20:52.646Z,1014.90
2022-10-05T03:21:53.069Z,1014.90
2022-10-05T03:22:53.384Z,1014.87
2022-10-05T03:23:53.752Z,1014.86
2022-10-05T03:24:54.083Z,1014.77
2022-10-05T03:25:54.436Z,1014.75
2022-10-05T03:26:54.806Z,1014.71
2022-10-05T03:27:55.194Z,1014.72
2022-10-05T03:28:55.529Z,1014.71
2022-10-05T03:29:55.886Z,1014.70
2022-10-05T03:30:56.269Z,1014.66
2022-10-05T03:31:56.607Z,1014.75
2022-10-05T03:32:56.946Z,1014.73
2022-10-05T03:33:57.353Z,1014.72
2022-10-05T03:34:57.654Z,1014.72
2022-10-05T03:35:58.006Z,1014.64
2022-10-05T03:36:58.365Z,1014.63
2022-10-05T03:37:58.710Z,1014.65
2022-10-05T03:38:59.078Z,1014.64
2022-10-05T03:39:59.427Z,1014.68
2022-10-05T03:40:59.771Z,1014.63
2022-10-05T03:42:00.158Z,1014.60
2022-10-05T03:43:00.481Z,1014.57
2022-10-05T03:44:00.832Z,1014.47
2022-10-05T03:45:01.181Z,1014.55
2022-10-05T03:46:01.590Z,1014.62
2022-10-05T03:47:01.931Z,1014.54
2022-10-05T03:48:02.274Z,1014.52
2022-10-05T03:49:02.624Z,1014.52
2022-10-05T03:50:02.982Z,1014.56
2022-10-05T03:51:03.349Z,1014.57
2022-10-05T03:52:03.755Z,1014.58
2022-10-05T03:53:04.055Z,1014.59
2022-10-05T03:54:04.403Z,1014.61
2022-10-05T03:55:04.756Z,1014.62
2022-10-05T03:56:05.115Z,1014.60
2022-10-05T03:57:05.507Z,1014.49
2022-10-05T03:58:05.817Z,1014.58
2022-10-05T03:59:06.171Z,1014.59
2022-10-05T04:00:06.522Z,1014.54
2022-10-05T04:01:06.938Z,1014.55
2022-10-05T04:02:07.247Z,1014.57
2022-10-05T04:03:07.596Z,1014.60
2022-10-05T04:04:07.951Z,1014.63
2022-10-05T04:05:08.296Z,1014.60
2022-10-05T04:06:08.658Z,1014.59
2022-10-05T04:07:09.016Z,1014.53
2022-10-05T04:08:09.372Z,1014.52
2022-10-05T04:09:09.728Z,1014.50
2022-10-05T04:10:10.101Z,1014.59
2022-10-05T04:11:10.450Z,1014.58
2022-10-05T04:12:10.886Z,1014.62
2022-10-05T04:13:11.184Z,1014.64
2022-10-05T04:14:11.545Z,1014.58
2022-10-05T04:15:16.443Z,1014.61
2022-10-05T04:16:12.334Z,1014.62
2022-10-05T04:17:12.679Z,1014.66
2022-10-05T04:18:13.025Z,1014.69
2022-10-05T04:19:13.372Z,1014.63
2022-10-05T04:20:13.759Z,1014.66
2022-10-05T04:21:14.111Z,1014.66
2022-10-05T04:22:14.556Z,1014.63
2022-10-05T04:23:14.833Z,1014.64
2022-10-05T04:24:15.183Z,1014.57
2022-10-05T04:25:15.526Z,1014.51
2022-10-05T04:26:15.882Z,1014.53
2022-10-05T04:27:16.251Z,1014.59
2022-10-05T04:28:16.671Z,1014.57
2022-10-05T04:29:16.937Z,1014.56
2022-10-05T04:30:17.374Z,1014.55
2022-10-05T04:31:17.782Z,1014.54
2022-10-05T04:32:18.070Z,1014.57
2022-10-05T04:33:18.426Z,1014.50
2022-10-05T04:34:18.787Z,1014.45
2022-10-05T04:35:19.136Z,1014.46
2022-10-05T04:36:19.490Z,1014.45
2022-10-05T04:37:19.871Z,1014.42
2022-10-05T04:38:20.188Z,1014.45
2022-10-05T04:39:20.541Z,1014.39
2022-10-05T04:40:20.907Z,1014.45
2022-10-05T04:41:21.270Z,1014.43
2022-10-05T04:42:21.650Z,1014.42
2022-10-05T04:43:21.990Z,1014.47
2022-10-05T04:44:22.342Z,1014.53
2022-10-05T04:45:22.695Z,1014.51
2022-10-05T04:46:23.148Z,1014.50
2022-10-05T04:47:23.418Z,1014.48
2022-10-05T04:48:23.795Z,1014.50
2022-10-05T04:49:24.119Z,1014.47
2022-10-05T04:50:24.473Z,1014.49
2022-10-05T04:51:24.832Z,1014.43
2022-10-05T04:52:25.230Z,1014.44
2022-10-05T04:53:25.574Z,1014.43
2022-10-05T04:54:25.931Z,1014.40
2022-10-05T04:55:26.310Z,1014.41
2022-10-05T04:56:26.719Z,1014.35
2022-10-05T04:57:27.054Z,1014.40
2022-10-05T04:58:27.476Z,1014.37
2022-10-05T04:59:27.778Z,1014.45
2022-10-05T05:00:27.955Z,1014.43
2022-10-05T05:01:28.092Z,1014.40
2022-10-05T05:02:28.406Z,1014.42
2022-10-05T05:03:28.740Z,1014.41
2022-10-05T05:04:28.811Z,1014.42
2022-10-05T05:05:29.138Z,1014.42
2022-10-05T05:06:29.298Z,1014.39
2022-10-05T05:07:29.457Z,1014.42
2022-10-05T05:08:29.884Z,1014.40
2022-10-05T05:09:29.922Z,1014.49
2022-10-05T05:10:30.095Z,1014.43
2022-10-05T05:11:30.251Z,1014.40
2022-10-05T05:12:30.440Z,1014.45
2022-10-05T05:13:30.591Z,1014.45
2022-10-05T05:14:30.771Z,1014.44
2022-10-05T05:15:30.956Z,1014.43
2022-10-05T05:16:31.292Z,1014.43
2022-10-05T05:17:31.416Z,1014.38
2022-10-05T05:18:31.579Z,1014.35
2022-10-05T05:19:31.753Z,1014.37
2022-10-05T05:20:31.953Z,1014.32
2022-10-05T05:21:32.117Z,1014.34
2022-10-05T05:22:32.447Z,1014.35
2022-10-05T05:23:32.707Z,1014.37
2022-10-05T05:24:32.852Z,1014.34
2022-10-05T05:25:33.154Z,1014.31
2022-10-05T05:26:36.811Z,1014.36
2022-10-05T05:27:33.650Z,1014.35
2022-10-05T05:28:33.899Z,1014.30
2022-10-05T05:29:33.977Z,1014.33
2022-10-05T05:30:34.161Z,1014.34
2022-10-05T05:31:34.551Z,1014.38
2022-10-05T05:32:34.648Z,1014.39
2022-10-05T05:33:34.962Z,1014.29
2022-10-05T05:34:35.112Z,1014.34
2022-10-05T05:35:35.402Z,1014.29
2022-10-05T05:36:35.696Z,1014.26
2022-10-05T05:37:35.883Z,1014.21
2022-10-05T05:38:36.056Z,1014.26
2022-10-05T05:39:36.199Z,1014.29
2022-10-05T05:40:36.543Z,1014.26
2022-10-05T05:41:36.535Z,1014.27
2022-10-05T05:42:36.718Z,1014.21
2022-10-05T05:43:36.875Z,1014.25
2022-10-05T05:44:38.962Z,1014.21
2022-10-05T05:45:37.239Z,1014.25
2022-10-05T05:47:01.758Z,1014.23
2022-10-05T05:47:37.799Z,1014.24
2022-10-05T05:48:37.921Z,1014.20
2022-10-05T05:49:38.249Z,1014.18
2022-10-05T05:50:38.367Z,1014.21
2022-10-05T05:51:38.533Z,1014.19
2022-10-05T05:52:38.721Z,1014.25
2022-10-05T05:53:38.872Z,1014.20
2022-10-05T05:54:39.036Z,1014.21
2022-10-05T05:55:39.218Z,1014.22
2022-10-05T05:56:39.395Z,1014.17
2022-10-05T05:57:39.618Z,1014.19
2022-10-05T05:58:39.728Z,1014.19
2022-10-05T05:59:40.062Z,1014.21
2022-10-05T06:00:40.225Z,1014.20
2022-10-05T06:01:44.274Z,1014.15
2022-10-05T06:02:40.890Z,1014.10
2022-10-05T06:03:40.871Z,1014.10
2022-10-05T06:04:41.059Z,1014.11
2022-10-05T06:05:41.199Z,1014.02
2022-10-05T06:06:41.403Z,1014.03
2022-10-05T06:07:41.594Z,1014.09
2022-10-05T06:08:41.747Z,1014.04
2022-10-05T06:09:41.952Z,1014.06
2022-10-05T06:10:42.167Z,1014.05
2022-10-05T06:11:42.298Z,1014.08
2022-10-05T06:12:42.477Z,1014.09
2022-10-05T06:13:42.640Z,1014.09
2022-10-05T06:14:42.817Z,1014.04
2022-10-05T06:15:42.982Z,1014.08
2022-10-05T06:16:43.238Z,1014.04
2022-10-05T06:17:43.383Z,1014.03
2022-10-05T06:18:43.544Z,1014.02
2022-10-05T06:19:43.742Z,1014.00
2022-10-05T06:20:43.922Z,1014.09
2022-10-05T06:21:44.134Z,1014.10
2022-10-05T06:22:44.368Z,1014.10
2022-10-05T06:23:44.495Z,1014.14
2022-10-05T06:24:44.684Z,1014.16
2022-10-05T06:25:44.905Z,1014.12
2022-10-05T06:26:45.462Z,1014.18
2022-10-05T06:27:45.285Z,1014.17
2022-10-05T06:28:45.475Z,1014.20
2022-10-05T06:29:45.712Z,1014.23
2022-10-05T06:30:45.835Z,1014.25
2022-10-05T06:31:46.102Z,1014.31
2022-10-05T06:32:46.218Z,1014.31
2022-10-05T06:33:46.406Z,1014.25
2022-10-05T06:34:46.593Z,1014.26
2022-10-05T06:35:46.796Z,1014.23
2022-10-05T06:36:47.502Z,1014.26
2022-10-05T06:37:47.193Z,1014.29
2022-10-05T06:38:47.395Z,1014.37
2022-10-05T06:39:47.588Z,1014.34
2022-10-05T06:40:47.749Z,1014.30
2022-10-05T06:41:47.948Z,1014.29
2022-10-05T06:42:48.151Z,1014.26
2022-10-05T06:43:48.354Z,1014.34
2022-10-05T06:44:48.516Z,1014.33
2022-10-05T06:45:48.808Z,1014.30
2022-10-05T06:46:49.250Z,1014.34
2022-10-05T06:47:49.121Z,1014.35
2022-10-05T06:48:49.273Z,1014.31
2022-10-05T06:49:49.468Z,1014.29
2022-10-05T06:50:49.677Z,1014.26
2022-10-05T06:51:49.846Z,1014.22
2022-10-05T06:52:50.087Z,1014.26
2022-10-05T06:53:50.224Z,1014.28
2022-10-05T06:54:50.417Z,1014.23
2022-10-05T06:55:50.600Z,1014.25
2022-10-05T06:56:50.782Z,1014.28
2022-10-05T06:57:51.014Z,1014.25
2022-10-05T06:58:51.166Z,1014.25
2022-10-05T06:59:51.352Z,1014.26
2022-10-05T07:00:51.579Z,1014.30
2022-10-05T07:01:52.066Z,1014.31
2022-10-05T07:02:51.946Z,1014.23
2022-10-05T07:03:52.123Z,1014.22
2022-10-05T07:04:52.292Z,1014.22
2022-10-05T07:05:52.516Z,1014.20
2022-10-05T07:06:52.710Z,1014.15
2022-10-05T07:07:52.943Z,1014.20
2022-10-05T07:08:53.092Z,1014.11
2022-10-05T07:09:53.274Z,1014.10
2022-10-05T07:10:53.468Z,1014.07
2022-10-05T07:11:58.409Z,1014.01
2022-10-05T07:12:53.843Z,1014.06
2022-10-05T07:13:54.029Z,1014.10
2022-10-05T07:14:54.201Z,1014.11
2022-10-05T07:15:54.385Z,1014.05
2022-10-05T07:16:54.657Z,1014.06
2022-10-05T07:17:54.917Z,1014.07
2022-10-05T07:18:54.956Z,1014.03
2022-10-05T07:19:55.144Z,1014.07
2022-10-05T07:20:55.331Z,1014.07
2022-10-05T07:21:55.522Z,1014.05
2022-10-05T07:22:55.847Z,1014.10
2022-10-05T07:23:55.898Z,1014.18
2022-10-05T07:24:56.031Z,1014.13
2022-10-05T07:25:56.251Z,1014.18
2022-10-05T07:26:56.442Z,1014.13
2022-10-05T07:27:56.682Z,1014.18
2022-10-05T07:28:56.806Z,1014.22
2022-10-05T07:29:57.018Z,1014.24
2022-10-05T07:30:57.234Z,1014.24
2022-10-05T07:31:57.407Z,1014.29
2022-10-05T07:32:57.609Z,1014.32
2022-10-05T07:33:57.800Z,1014.22
2022-10-05T07:34:57.985Z,1014.22
2022-10-05T07:35:58.172Z,1014.22
2022-10-05T07:36:58.817Z,1014.21
2022-10-05T07:37:58.556Z,1014.18
2022-10-05T07:38:58.731Z,1014.21
2022-10-05T07:40:01.177Z,1014.17
2022-10-05T07:40:59.107Z,1014.17
2022-10-05T07:41:59.299Z,1014.25
2022-10-05T07:42:59.496Z,1014.20
2022-10-05T07:44:03.425Z,1014.16
2022-10-05T07:44:59.874Z,1014.24
2022-10-05T07:46:00.140Z,1014.24
2022-10-05T07:47:00.255Z,1014.21
2022-10-05T07:48:00.463Z,1014.22
2022-10-05T07:49:00.609Z,1014.26
2022-10-05T07:50:00.806Z,1014.24
2022-10-05T07:51:01.033Z,1014.22
2022-10-05T07:52:01.176Z,1014.25
2022-10-05T07:53:01.377Z,1014.22
2022-10-05T07:54:01.560Z,1014.33
2022-10-05T07:55:01.750Z,1014.23
2022-10-05T07:56:01.952Z,1014.25
2022-10-05T07:57:02.142Z,1014.26
2022-10-05T07:58:02.336Z,1014.29
2022-10-05T07:59:02.487Z,1014.31
2022-10-05T08:00:02.683Z,1014.24
2022-10-05T08:01:02.863Z,1014.17
2022-10-05T08:02:03.159Z,1014.23
2022-10-05T08:03:03.395Z,1014.24
2022-10-05T08:04:03.413Z,1014.25
2022-10-05T08:05:03.597Z,1014.20
2022-10-05T08:06:03.787Z,1014.16
2022-10-05T08:07:03.966Z,1014.24
2022-10-05T08:08:04.172Z,1014.27
2022-10-05T08:09:04.332Z,1014.32
2022-10-05T08:10:04.519Z,1014.34
2022-10-05T08:11:04.702Z,1014.31
2022-10-05T08:12:04.886Z,1014.35
2022-10-05T08:13:05.083Z,1014.34
2022-10-05T08:14:05.276Z,1014.31
2022-10-05T08:15:05.460Z,1014.31
2022-10-05T08:16:05.710Z,1014.34
2022-10-05T08:17:05.841Z,1014.39
2022-10-05T08:18:06.041Z,1014.38
2022-10-05T08:19:06.223Z,1014.38
2022-10-05T08:20:06.416Z,1014.35
2022-10-05T08:21:06.598Z,1014.35
2022-10-05T08:22:06.794Z,1014.36
2022-10-05T08:23:07.025Z,1014.38
2022-10-05T08:24:07.186Z,1014.36
2022-10-05T08:25:07.362Z,1014.34
2022-10-05T08:26:07.579Z,1014.42
2022-10-05T08:27:07.761Z,1014.40
2022-10-05T08:28:08.010Z,1014.40
2022-10-05T08:29:11.516Z,1014.39
2022-10-05T08:30:08.322Z,1014.42
2022-10-05T08:31:08.585Z,1014.36
2022-10-05T08:32:08.710Z,1014.40
2022-10-05T08:33:08.917Z,1014.38
2022-10-05T08:34:09.110Z,1014.44
2022-10-05T08:35:09.293Z,1014.41
2022-10-05T08:36:09.482Z,1014.35
2022-10-05T08:37:09.690Z,1014.37
2022-10-05T08:38:09.908Z,1014.38
2022-10-05T08:39:10.043Z,1014.32
2022-10-05T08:40:10.242Z,1014.29
2022-10-05T08:41:10.430Z,1014.30
2022-10-05T08:42:10.636Z,1014.27
2022-10-05T08:43:10.857Z,1014.30
2022-10-05T08:44:11.009Z,1014.23
2022-10-05T08:45:11.201Z,1014.27
2022-10-05T08:46:11.455Z,1014.31
2022-10-05T08:47:11.585Z,1014.36
2022-10-05T08:48:11.764Z,1014.22
2022-10-05T08:49:11.910Z,1014.31
2022-10-05T08:50:12.175Z,1014.22
2022-10-05T08:51:12.293Z,1014.14
2022-10-05T08:52:12.479Z,1014.15
2022-10-05T08:53:12.728Z,1014.17
2022-10-05T08:54:12.849Z,1014.22
2022-10-05T08:55:13.075Z,1014.08
2022-10-05T08:56:17.659Z,1014.16
2022-10-05T08:57:13.427Z,1014.22
2022-10-05T08:58:13.636Z,1014.21
2022-10-05T08:59:13.807Z,1014.19
2022-10-05T09:00:14.013Z,1014.18
2022-10-05T09:01:14.249Z,1014.32
2022-10-05T09:02:14.534Z,1014.23
2022-10-05T09:03:14.642Z,1014.29
2022-10-05T09:04:14.802Z,1014.25
2022-10-05T09:05:14.993Z,1014.23
2022-10-05T09:06:15.195Z,1014.16
2022-10-05T09:07:15.407Z,1014.18
2022-10-05T09:08:15.585Z,1014.23
2022-10-05T09:09:15.736Z,1014.18
2022-10-05T09:10:15.937Z,1014.20
2022-10-05T09:11:16.093Z,1014.17
2022-10-05T09:12:16.322Z,1014.14
2022-10-05T09:13:16.508Z,1014.17
2022-10-05T09:14:16.669Z,1014.14
2022-10-05T09:15:32.039Z,1014.12
2022-10-05T09:16:17.148Z,1014.13
2022-10-05T09:17:17.240Z,1014.18
2022-10-05T09:18:17.447Z,1014.12
2022-10-05T09:19:17.605Z,1014.15
2022-10-05T09:20:17.811Z,1014.12
2022-10-05T09:21:17.997Z,1014.15
2022-10-05T09:22:18.194Z,1014.14
2022-10-05T09:23:18.452Z,1014.14
2022-10-05T09:24:18.602Z,1014.18
2022-10-05T09:25:18.790Z,1014.11
2022-10-05T09:26:18.977Z,1014.11
2022-10-05T09:27:19.238Z,1014.06
2022-10-05T09:28:19.444Z,1014.04
2022-10-05T09:29:19.562Z,1014.04
2022-10-05T09:30:19.755Z,1014.06
2022-10-05T09:31:19.985Z,1014.00
2022-10-05T09:32:20.142Z,1014.02
2022-10-05T09:33:20.356Z,1014.02
2022-10-05T09:34:20.505Z,1014.04
2022-10-05T09:35:20.717Z,1013.99
2022-10-05T09:36:20.874Z,1014.02
2022-10-05T09:37:21.075Z,1013.96
2022-10-05T09:38:21.263Z,1014.03
2022-10-05T09:39:21.424Z,1013.97
2022-10-05T09:40:21.616Z,1013.94
2022-10-05T09:41:21.820Z,1013.92
2022-10-05T09:42:22.011Z,1013.95
2022-10-05T09:43:22.236Z,1013.95
2022-10-05T09:44:22.387Z,1013.90
2022-10-05T09:45:22.579Z,1013.97
2022-10-05T09:46:22.831Z,1013.99
2022-10-05T09:47:22.966Z,1013.99
2022-10-05T09:48:23.186Z,1013.93
2022-10-05T09:49:23.356Z,1014.02
2022-10-05T09:50:23.554Z,1014.02
2022-10-05T09:51:23.752Z,1013.85
2022-10-05T09:52:23.948Z,1013.89
2022-10-05T09:53:24.158Z,1013.90
2022-10-05T09:54:24.313Z,1013.90
2022-10-05T09:55:24.538Z,1013.92
2022-10-05T09:56:24.734Z,1013.92
2022-10-05T09:57:24.900Z,1013.96
2022-10-05T09:58:25.116Z,1013.91
2022-10-05T09:59:25.281Z,1013.97
2022-10-05T10:00:25.445Z,1013.97
2022-10-05T10:01:44.850Z,1013.96
2022-10-05T10:02:25.988Z,1013.94
2022-10-05T10:03:26.125Z,1013.89
2022-10-05T10:04:26.206Z,1013.87
2022-10-05T10:05:26.393Z,1013.96
2022-10-05T10:06:26.565Z,1013.89
2022-10-05T10:07:26.769Z,1013.90
2022-10-05T10:08:26.970Z,1013.91
2022-10-05T10:09:27.167Z,1013.81
2022-10-05T10:10:27.358Z,1013.75
2022-10-05T10:11:27.555Z,1013.78
2022-10-05T10:12:27.739Z,1013.80
2022-10-05T10:13:27.942Z,1013.81
2022-10-05T10:14:28.126Z,1013.75
2022-10-05T10:15:28.375Z,1013.78
2022-10-05T10:16:28.550Z,1013.81
2022-10-05T10:17:28.686Z,1013.73
2022-10-05T10:18:28.899Z,1013.71
2022-10-05T10:19:29.137Z,1013.73
2022-10-05T10:20:29.250Z,1013.73
2022-10-05T10:21:29.474Z,1013.79
2022-10-05T10:22:29.633Z,1013.78
2022-10-05T10:23:29.872Z,1013.70
2022-10-05T10:24:30.025Z,1013.72
2022-10-05T10:25:30.218Z,1013.71
2022-10-05T10:26:30.410Z,1013.73
2022-10-05T10:27:30.623Z,1013.67
2022-10-05T10:28:30.914Z,1013.67
2022-10-05T10:29:30.999Z,1013.66
2022-10-05T10:30:33.186Z,1013.66
2022-10-05T10:31:31.433Z,1013.76
2022-10-05T10:32:31.547Z,1013.69
2022-10-05T10:33:31.763Z,1013.68
2022-10-05T10:34:31.910Z,1013.69
2022-10-05T10:35:32.132Z,1013.64
2022-10-05T10:36:32.303Z,1013.66
2022-10-05T10:37:32.518Z,1013.69
2022-10-05T10:38:32.722Z,1013.64
2022-10-05T10:39:32.885Z,1013.72
2022-10-05T10:40:33.077Z,1013.64
2022-10-05T10:41:33.274Z,1013.60
2022-10-05T10:42:33.480Z,1013.71
2022-10-05T10:43:33.690Z,1013.67
2022-10-05T10:44:33.881Z,1013.66
2022-10-05T10:45:34.036Z,1013.72
2022-10-05T10:46:34.307Z,1013.68
2022-10-05T10:47:34.429Z,1013.68
2022-10-05T10:48:34.642Z,1013.69
2022-10-05T10:49:34.842Z,1013.67
2022-10-05T10:50:35.007Z,1013.70
2022-10-05T10:51:35.226Z,1013.66
2022-10-05T10:52:35.435Z,1013.65
2022-10-05T10:53:35.657Z,1013.66
2022-10-05T10:54:35.758Z,1013.66
2022-10-05T10:55:35.953Z,1013.65
2022-10-05T10:56:36.180Z,1013.60
2022-10-05T10:57:36.344Z,1013.61
2022-10-05T10:58:36.572Z,1013.64
2022-10-05T10:59:36.741Z,1013.60
2022-10-05T11:00:36.895Z,1013.71
2022-10-05T11:01:37.142Z,1013.61
2022-10-05T11:02:37.449Z,1013.67
2022-10-05T11:03:37.475Z,1013.66
2022-10-05T11:04:37.646Z,1013.58
2022-10-05T11:05:37.804Z,1013.60
2022-10-05T11:06:38.027Z,1013.61
2022-10-05T11:07:38.173Z,1013.59
2022-10-05T11:08:38.385Z,1013.51
2022-10-05T11:09:38.581Z,1013.54
2022-10-05T11:10:38.737Z,1013.57
2022-10-05T11:11:38.932Z,1013.55
2022-10-05T11:12:39.124Z,1013.55
2022-10-05T11:13:39.348Z,1013.54
2022-10-05T11:14:39.520Z,1013.55
2022-10-05T11:15:39.757Z,1013.52
2022-10-05T11:16:39.895Z,1013.51
2022-10-05T11:17:40.083Z,1013.49
2022-10-05T11:18:40.295Z,1013.42
2022-10-05T11:19:52.821Z,1013.54
2022-10-05T11:20:40.631Z,1013.48
2022-10-05T11:21:40.849Z,1013.40
2022-10-05T11:22:41.012Z,1013.43
2022-10-05T11:23:41.255Z,1013.40
2022-10-05T11:24:41.397Z,1013.38
2022-10-05T11:25:41.590Z,1013.37
2022-10-05T11:26:41.779Z,1013.34
2022-10-05T11:27:42.043Z,1013.33
2022-10-05T11:28:42.242Z,1013.31
2022-10-05T11:29:42.349Z,1013.30
2022-10-05T11:30:43.160Z,1013.22
2022-10-05T11:31:42.807Z,1013.30
2022-10-05T11:32:42.911Z,1013.33
2022-10-05T11:33:43.123Z,1013.32
2022-10-05T11:34:43.278Z,1013.27
2022-10-05T11:35:43.470Z,1013.24
2022-10-05T11:36:43.664Z,1013.26
2022-10-05T11:37:43.858Z,1013.32
2022-10-05T11:38:44.075Z,1013.27
2022-10-05T11:39:44.230Z,1013.25
2022-10-05T11:40:44.429Z,1013.25
2022-10-05T11:41:44.634Z,1013.24
2022-10-05T11:42:44.877Z,1013.16
2022-10-05T11:43:45.059Z,1013.17
2022-10-05T11:44:45.211Z,1013.18
2022-10-05T11:45:45.415Z,1013.11
2022-10-05T11:46:45.672Z,1013.17
2022-10-05T11:47:45.804Z,1013.19
2022-10-05T11:48:46.017Z,1013.13
2022-10-05T11:49:46.194Z,1013.08
2022-10-05T11:50:46.351Z,1013.13
2022-10-05T11:51:46.973Z,1013.21
2022-10-05T11:52:46.755Z,1013.10
2022-10-05T11:53:46.934Z,1012.99
2022-10-05T11:55:12.541Z,1013.07
2022-10-05T11:55:47.288Z,1012.94
2022-10-05T11:56:50.757Z,1013.01
2022-10-05T11:57:47.661Z,1013.00
2022-10-05T11:58:47.879Z,1013.00
2022-10-05T11:59:48.053Z,1012.89
2022-10-05T12:00:48.203Z,1012.95
2022-10-05T12:01:48.423Z,1012.93
2022-10-05T12:02:48.656Z,1012.90
2022-10-05T12:03:49.097Z,1012.99
2022-10-05T12:04:48.960Z,1012.89
2022-10-05T12:05:49.171Z,1012.93
2022-10-05T12:06:49.612Z,1012.86
2022-10-05T12:07:49.580Z,1012.88
2022-10-05T12:08:49.796Z,1012.83